Time;durP1;ratioP1;P1;durP2;ratioP2;P2;SDS_P1;SDS_P2;PMS_P1;PMS_P2;Temp;Humidity;BMP_temperature;BMP_pressure;BME280_temperature;BME280_humidity;BME280_pressure;Samples;Min_cycle;Max_cycle;Signal;HPM_P1;HPM_P2
2021/04/12 00:00:22;;;;;;;5.22;4.25;;;;;;;;;;3595766;39;20754;-63
2021/04/12 00:02:52;;;;;;;3.40;3.20;;;9.10;99.90;;;;;;3595938;39;20392;-63
2021/04/12 00:05:28;;;;;;;3.38;3.08;;;;;;;;;;3595821;40;20404;-63
2021/04/12 00:07:59;;;;;;;3.63;3.33;;;;;;;;;;3595915;40;20388;-63
2021/04/12 00:10:29;;;;;;;3.72;3.30;;;;;;;;;;3589931;39;20360;-63
2021/04/12 00:12:58;;;;;;;4.65;3.90;;;;;;;;;;3597607;40;20429;-63
2021/04/12 00:15:26;;;;;;;3.88;3.58;;;;;;;;;;3596616;39;20372;-63
2021/04/12 00:17:58;;;;;;;3.67;3.38;;;;;;;;;;3591514;39;20387;-63
2021/04/12 00:20:27;;;;;;;3.55;3.28;;;;;;;;;;3588186;40;20395;-63
2021/04/12 00:22:54;;;;;;;3.97;3.67;;;;;;;;;;3589919;40;20732;-63
2021/04/12 00:25:24;;;;;;;3.45;3.25;;;;;;;;;;3597306;40;20388;-63
2021/04/12 00:27:53;;;;;;;4.00;3.70;;;;;;;;;;3594836;39;20409;-64
2021/04/12 00:30:22;;;;;;;3.93;3.57;;;;;;;;;;3587424;40;20393;-64
2021/04/12 00:32:50;;;;;;;4.55;4.15;;;;;;;;;;3596713;39;20424;-63
2021/04/12 00:35:18;;;;;;;4.50;4.13;;;;;;;;;;3597604;40;20734;-64
2021/04/12 00:37:47;;;;;;;4.40;4.00;;;;;;;;;;3597196;39;20376;-63
2021/04/12 00:40:21;;;;;;;4.40;4.00;;;;;;;;;;3597224;40;20437;-63
2021/04/12 00:43:06;;;;;;;5.10;4.70;;;;;;;;;;3587607;40;20391;-63
2021/04/12 00:45:38;;;;;;;4.27;3.97;;;;;;;;;;3597499;39;20842;-63
2021/04/12 00:48:15;;;;;;;3.97;3.67;;;;;;;;;;3597108;39;20665;-63
2021/04/12 00:50:47;;;;;;;5.20;4.70;;;;;;;;;;3597164;40;20459;-63
2021/04/12 00:53:28;;;;;;;5.13;4.72;;;;;;;;;;3587881;40;20365;-63
2021/04/12 00:55:56;;;;;;;5.53;5.03;;;;;;;;;;3597400;40;20645;-63
2021/04/12 00:58:31;;;;;;;5.30;4.67;;;;;;;;;;3598092;39;20913;-64
2021/04/12 01:01:03;;;;;;;6.18;5.68;;;;;;;;;;3597073;40;20381;-64
2021/04/12 01:03:35;;;;;;;5.40;4.97;;;;;;;;;;3596839;40;20479;-63
2021/04/12 01:06:07;;;;;;;5.63;5.13;;;;;;;;;;3598091;39;20474;-63
2021/04/12 01:08:44;;;;;;;6.72;5.90;;;;;;;;;;3597085;39;20391;-63
2021/04/12 01:11:42;;;;;;;5.65;5.15;;;;;;;;;;3597214;40;20464;-63
2021/04/12 01:14:23;;;;;;;5.75;5.20;;;;;;;;;;3597132;40;20746;-63
2021/04/12 01:16:58;;;;;;;7.00;6.00;;;;;;;;;;3597290;40;20369;-63
2021/04/12 01:19:39;;;;;;;5.93;5.38;;;;;;;;;;3589250;39;20377;-64
2021/04/12 01:22:35;;;;;;;6.03;5.53;;;;;;;;;;3568966;39;20415;-63
2021/04/12 01:25:20;;;;;;;5.68;5.13;;;;;;;;;;3555470;40;20388;-63
2021/04/12 01:28:13;;;;;;;7.05;6.45;;;;;;;;;;3592154;40;20376;-64
2021/04/12 01:30:46;;;;;;;6.82;6.13;;;;;;;;;;3586987;40;20380;-63
2021/04/12 01:33:30;;;;;;;7.93;7.13;;;;;;;;;;3597150;40;20653;-63
2021/04/12 01:36:11;;;;;;;6.00;5.50;;;;;;;;;;3588884;39;21433;-63
2021/04/12 01:38:40;;;;;;;5.90;5.40;;;;;;;;;;3549959;40;20407;-63
2021/04/12 01:41:24;;;;;;;6.72;6.13;;;;;;;;;;3545948;40;20833;-63
2021/04/12 01:44:01;;;;;;;5.40;4.90;;;;;;;;;;3564180;40;20397;-63
2021/04/12 01:46:31;;;;;;;5.35;4.90;;;;;;;;;;3595240;40;20367;-63
2021/04/12 01:49:00;;;;;;;5.80;5.03;;;;;;;;;;3592791;40;20423;-63
2021/04/12 01:51:36;;;;;;;5.00;4.60;;;;;;;;;;3596606;39;20428;-63
2021/04/12 01:54:20;;;;;;;5.05;4.65;;;;;;;;;;3597731;39;20413;-63
2021/04/12 01:56:51;;;;;;;5.60;4.90;;;;;;;;;;3585955;39;20388;-63
2021/04/12 01:59:27;;;;;;;6.65;5.57;;;;;;;;;;3594278;40;20437;-63
2021/04/12 02:02:07;;;;;;;6.80;6.13;;;;;;;;;;3596157;39;20391;-63
2021/04/12 02:05:00;;;;;;;6.95;6.35;;;9.20;99.90;;;;;;3596667;39;20478;-63
2021/04/12 02:07:49;;;;;;;6.38;5.78;;;8.70;99.90;;;;;;3581117;39;20654;-64
2021/04/12 02:10:34;;;;;;;5.22;4.82;;;8.80;99.90;;;;;;3598742;39;20377;-64
2021/04/12 02:13:10;;;;;;;5.35;4.95;;;8.90;99.90;;;;;;3597037;40;20373;-63
2021/04/12 02:15:50;;;;;;;5.82;5.32;;;8.90;99.90;;;;;;3587414;39;20381;-63
2021/04/12 02:18:31;;;;;;;5.63;5.03;;;;;;;;;;3596798;40;20470;-63
2021/04/12 02:21:00;;;;;;;4.67;4.27;;;;;;;;;;3573847;40;20762;-64
2021/04/12 02:23:36;;;;;;;5.63;5.10;;;;;;;;;;3581539;40;20433;-63
2021/04/12 02:26:09;;;;;;;9.13;5.83;;;;;;;;;;3596343;40;20502;-63
2021/04/12 02:28:58;;;;;;;4.63;4.22;;;;;;;;;;3596694;39;20385;-63
2021/04/12 02:31:31;;;;;;;5.80;4.70;;;;;;;;;;3596848;40;20388;-63
2021/04/12 02:33:59;;;;;;;5.15;4.70;;;;;;;;;;3596172;39;20380;-64
2021/04/12 02:36:33;;;;;;;5.00;4.50;;;;;;;;;;3599717;39;20379;-63
2021/04/12 02:39:02;;;;;;;4.97;4.50;;;;;;;;;;3599907;39;20361;-63
2021/04/12 02:41:35;;;;;;;5.03;4.38;;;;;;;;;;3589976;40;20395;-66
2021/04/12 02:44:22;;;;;;;4.70;4.30;;;8.90;99.90;;;;;;3596576;40;20361;-66
2021/04/12 02:47:09;;;;;;;4.35;3.92;;;;;;;;;;3596493;40;20405;-66
2021/04/12 02:49:43;;;;;;;4.80;4.40;;;;;;;;;;3595079;40;20378;-66
2021/04/12 02:52:21;;;;;;;6.47;4.70;;;;;;;;;;3590278;39;20402;-66
2021/04/12 02:54:57;;;;;;;4.88;4.38;;;;;;;;;;3596005;39;20380;-71
2021/04/12 02:57:44;;;;;;;4.93;4.50;;;;;;;;;;3596998;40;20369;-71
2021/04/12 03:00:22;;;;;;;5.97;5.03;;;;;;;;;;3593510;40;20380;-71
2021/04/12 03:03:07;;;;;;;4.60;4.20;;;;;;;;;;3596528;40;20400;-74
2021/04/12 03:05:48;;;;;;;4.25;3.85;;;;;;;;;;3591269;40;20380;-71
2021/04/12 03:08:33;;;;;;;4.25;3.90;;;;;;;;;;3595127;40;20792;-73
2021/04/12 03:11:18;;;;;;;4.45;4.05;;;;;;;;;;3587032;40;20383;-71
2021/04/12 03:13:59;;;;;;;4.00;3.60;;;;;;;;;;3595598;39;20446;-71
2021/04/12 03:16:43;;;;;;;3.95;3.60;;;;;;;;;;3590863;40;20440;-71
2021/04/12 03:19:18;;;;;;;4.60;4.20;;;;;;;;;;3580846;40;20481;-71
2021/04/12 03:21:59;;;;;;;4.65;4.25;;;;;;;;;;3596552;39;20692;-71
2021/04/12 03:24:28;;;;;;;4.93;4.43;;;;;;;;;;3603407;39;20781;-71
2021/04/12 03:27:15;;;;;;;4.50;4.15;;;;;;;;;;3594126;40;20372;-71
2021/04/12 03:29:46;;;;;;;4.63;4.28;;;;;;;;;;3592224;39;20712;-71
2021/04/12 03:32:31;;;;;;;5.22;4.72;;;;;;;;;;3586790;40;20399;-71
2021/04/12 03:35:03;;;;;;;5.15;4.75;;;;;;;;;;3596592;39;20368;-71
2021/04/12 03:37:48;;;;;;;4.80;4.37;;;;;;;;;;3596279;39;20380;-71
2021/04/12 03:40:23;;;;;;;4.88;4.43;;;;;;;;;;3596102;40;20633;-72
2021/04/12 03:43:07;;;;;;;5.47;4.97;;;;;;;;;;3596655;40;20391;-71
2021/04/12 03:45:57;;;;;;;5.18;4.72;;;;;;;;;;3580860;40;20388;-70
2021/04/12 03:48:42;;;;;;;6.65;5.95;;;;;;;;;;3546242;40;20409;-71
2021/04/12 03:51:22;;;;;;;5.70;5.20;;;;;;;;;;3543587;40;20442;-70
2021/04/12 03:54:00;;;;;;;4.93;4.43;;;;;;;;;;3594127;40;20397;-69
2021/04/12 03:56:31;;;;;;;6.85;4.63;;;;;;;;;;3591799;40;20749;-71
2021/04/12 03:59:07;;;;;;;5.10;4.63;;;;;;;;;;3598011;40;20390;-70
2021/04/12 04:01:43;;;;;;;5.68;5.18;;;;;;;;;;3591800;40;20379;-71
2021/04/12 04:04:30;;;;;;;5.95;5.38;;;;;;;;;;3597729;40;20403;-70
2021/04/12 04:07:07;;;;;;;8.07;7.38;;;;;;;;;;3566109;40;20449;-71
2021/04/12 04:09:51;;;;;;;7.15;6.55;;;;;;;;;;3596796;40;20481;-71
2021/04/12 04:12:30;;;;;;;7.22;6.63;;;;;;;;;;3588308;40;20720;-70
2021/04/12 04:15:03;;;;;;;7.38;6.68;;;;;;;;;;3597811;39;20372;-71
2021/04/12 04:17:47;;;;;;;6.97;6.38;;;;;;;;;;3597959;39;20376;-71
2021/04/12 04:20:21;;;;;;;7.22;6.63;;;;;;;;;;3597847;40;20369;-70
2021/04/12 04:23:03;;;;;;;7.78;7.07;;;;;;;;;;3590768;40;20446;-71
2021/04/12 04:25:50;;;;;;;7.57;6.90;;;;;;;;;;3597218;40;20641;-72
2021/04/12 04:28:28;;;;;;;7.43;6.72;;;;;;;;;;3569670;40;20398;-71
2021/04/12 04:31:09;;;;;;;7.32;6.70;;;;;;;;;;3597188;39;20368;-69
2021/04/12 04:33:54;;;;;;;7.47;6.78;;;;;;;;;;3580802;40;20471;-70
2021/04/12 04:36:26;;;;;;;7.15;6.55;;;;;;;;;;3593075;39;20382;-71
2021/04/12 04:39:05;;;;;;;7.00;6.30;;;;;;;;;;3595095;40;20408;-70
2021/04/12 04:41:55;;;;;;;7.57;6.88;;;;;;;;;;3597583;40;20369;-71
2021/04/12 04:44:35;;;;;;;7.47;6.77;;;;;;;;;;3570407;40;20434;-71
2021/04/12 04:47:12;;;;;;;8.02;7.22;;;;;;;;;;3596717;40;20760;-71
2021/04/12 04:49:45;;;;;;;8.23;7.43;;;;;;;;;;3593359;39;20474;-70
2021/04/12 04:52:18;;;;;;;7.63;6.93;;;;;;;;;;3596602;40;20388;-71
2021/04/12 04:54:59;;;;;;;6.73;6.20;;;;;;;;;;3596361;39;20365;-70
2021/04/12 04:57:34;;;;;;;7.88;7.10;;;;;;;;;;3556336;40;20400;-71
2021/04/12 05:00:12;;;;;;;7.88;7.18;;;;;;;;;;3564506;40;20803;-71
2021/04/12 05:03:02;;;;;;;7.90;7.20;;;;;;;;;;3565554;40;20552;-71
2021/04/12 05:05:44;;;;;;;6.97;6.28;;;;;;;;;;3556503;40;20487;-71
2021/04/12 05:08:29;;;;;;;7.88;7.18;;;;;;;;;;3560785;40;20431;-71
2021/04/12 05:11:13;;;;;;;8.85;8.05;;;;;;;;;;3559354;40;20383;-71
2021/04/12 05:13:57;;;;;;;7.93;7.22;;;;;;;;;;3559836;40;20626;-70
2021/04/12 05:16:41;;;;;;;8.33;7.53;;;;;;;;;;3562773;40;20532;-71
2021/04/12 05:19:22;;;;;;;7.95;7.25;;;;;;;;;;3564578;40;20433;-70
2021/04/12 05:21:57;;;;;;;7.72;7.10;;;;;;;;;;3563930;40;20385;-71
2021/04/12 05:24:33;;;;;;;7.43;6.82;;;;;;;;;;3565135;40;20397;-71
2021/04/12 05:27:13;;;;;;;7.65;7.05;;;;;;;;;;3565165;40;20393;-71
2021/04/12 05:29:51;;;;;;;6.95;6.35;;;;;;;;;;3559337;40;20492;-70
2021/04/12 05:32:23;;;;;;;7.03;6.43;;;;;;;;;;3564901;40;20505;-70
2021/04/12 05:35:04;;;;;;;7.32;6.47;;;;;;;;;;3582502;40;20406;-69
2021/04/12 05:37:50;;;;;;;9.77;8.80;;;;;;;;;;3588929;40;20434;-69
2021/04/12 05:40:47;;;;;;;11.35;8.65;;;;;;;;;;3581739;40;20417;-69
2021/04/12 05:43:27;;;;;;;8.52;7.75;;;;;;;;;;3579751;40;20420;-69
2021/04/12 05:46:12;;;;;;;9.88;8.90;;;;;;;;;;3579395;40;20721;-69
2021/04/12 05:48:45;;;;;;;7.47;6.78;;;;;;;;;;3585107;40;20391;-69
2021/04/12 05:51:18;;;;;;;9.18;8.27;;;;;;;;;;3581410;40;20378;-70
2021/04/12 05:54:08;;;;;;;8.05;7.25;;;;;;;;;;3577563;40;20386;-70
2021/04/12 05:56:56;;;;;;;8.02;7.32;;;;;;;;;;3585885;40;20391;-70
2021/04/12 05:59:38;;;;;;;8.02;7.22;;;;;;;;;;3586859;40;20749;-70
2021/04/12 06:02:13;;;;;;;7.88;7.07;;;;;;;;;;3582541;40;20401;-70
2021/04/12 06:04:44;;;;;;;6.93;6.30;;;;;;;;;;3582244;39;20427;-70
2021/04/12 06:07:19;;;;;;;7.13;6.53;;;;;;;;;;3598633;39;20646;-70
2021/04/12 06:10:08;;;;;;;7.80;7.10;;;;;;;;;;3596891;40;20384;-72
2021/04/12 06:12:54;;;;;;;8.35;7.55;;;;;;;;;;3590453;39;20416;-69
2021/04/12 06:15:35;;;;;;;9.48;7.65;;;;;;;;;;3597454;40;20750;-70
2021/04/12 06:18:20;;;;;;;7.20;6.50;;;;;;;;;;3597091;40;20413;-70
2021/04/12 06:21:03;;;;;;;7.37;6.73;;;;;;;;;;3598770;39;20359;-70
2021/04/12 06:23:36;;;;;;;6.72;6.03;;;;;;;;;;3591266;40;20444;-70
2021/04/12 06:26:26;;;;;;;6.90;6.30;;;;;;;;;;3587575;40;20422;-70
2021/04/12 06:29:01;;;;;;;6.93;6.20;;;;;;;;;;3584100;39;20401;-69
2021/04/12 06:31:43;;;;;;;6.72;6.13;;;;;;;;;;3587206;40;20448;-70
2021/04/12 06:34:33;;;;;;;6.93;6.28;;;;;;;;;;3595134;39;20368;-70
2021/04/12 06:37:07;;;;;;;9.20;6.80;;;;;;;;;;3577318;40;20432;-69
2021/04/12 06:39:43;;;;;;;8.10;7.30;;;;;;;;;;3597415;39;20381;-70
2021/04/12 06:42:36;;;;;;;10.68;8.32;;;;;;;;;;3597031;40;20364;-70
2021/04/12 06:45:21;;;;;;;12.37;11.07;;;;;;;;;;3590784;40;20626;-70
2021/04/12 06:48:11;;;;;;;15.88;14.27;;;;;;;;;;3596990;40;20753;-70
2021/04/12 06:51:02;;;;;;;15.60;14.00;;;;;;;;;;3596912;39;20760;-72
2021/04/12 06:53:57;;;;;;;15.65;13.77;;;;;;;;;;3593949;39;20748;-69
2021/04/12 06:56:46;;;;;;;12.68;11.20;;;;;;;;;;3591326;39;20381;-70
2021/04/12 06:59:39;;;;;;;18.63;16.17;;;;;;;;;;3587006;40;20394;-70
2021/04/12 07:02:26;;;;;;;20.05;17.98;;;;;;;;;;3591115;39;20408;-69
2021/04/12 07:05:08;;;;;;;19.90;17.67;;;;;;;;;;3590116;40;20421;-70
2021/04/12 07:07:53;;;;;;;13.27;11.95;;;;;;;;;;3586612;40;20367;-70
2021/04/12 07:10:40;;;;;;;12.18;10.98;;;;;;;;;;3584604;40;20422;-69
2021/04/12 07:13:18;;;;;;;11.93;10.82;;;;;;;;;;3586810;40;20454;-69
2021/04/12 07:15:59;;;;;;;9.82;8.88;;;;;;;;;;3586382;40;20457;-69
2021/04/12 07:18:44;;;;;;;9.23;8.33;;;;;;;;;;3586382;40;20375;-69
2021/04/12 07:21:23;;;;;;;8.55;7.68;;;;;;;;;;3579218;40;20355;-69
2021/04/12 07:24:13;;;;;;;7.20;6.60;;;;;;;;;;3586441;40;20751;-69
2021/04/12 07:27:00;;;;;;;6.25;5.68;;;;;;;;;;3581549;40;20442;-69
2021/04/12 07:29:37;;;;;;;6.10;5.50;;;;;;;;;;3576660;40;20406;-70
2021/04/12 07:32:27;;;;;;;5.90;5.40;;;;;;;;;;3586786;40;20377;-70
2021/04/12 07:35:11;;;;;;;5.63;5.07;;;;;;;;;;3566653;40;20393;-70
2021/04/12 07:38:10;;;;;;;5.32;4.82;;;;;;;;;;3584711;40;20383;-70
2021/04/12 07:41:00;;;;;;;6.10;5.55;;;;;;;;;;3578489;40;20382;-70
2021/04/12 07:43:45;;;;;;;5.40;4.90;;;;;;;;;;3579108;40;20386;-70
2021/04/12 07:46:29;;;;;;;5.70;5.00;;;;;;;;;;3584495;40;20630;-70
2021/04/12 07:49:14;;;;;;;5.70;5.10;;;;;;;;;;3585107;40;20394;-70
2021/04/12 07:51:57;;;;;;;5.35;4.85;;;;;;;;;;3584848;40;20640;-70
2021/04/12 07:54:38;;;;;;;3.70;3.40;;;;;;;;;;3537728;40;20418;-69
2021/04/12 07:57:32;;;;;;;4.55;4.15;;;;;;;;;;3539427;40;20411;-70
2021/04/12 08:00:13;;;;;;;4.30;3.90;;;;;;;;;;3544900;40;20662;-70
2021/04/12 08:03:03;;;;;;;5.10;4.60;;;;;;;;;;3549979;40;20832;-69
2021/04/12 08:05:48;;;;;;;4.28;3.88;;;;;;;;;;3560842;39;20463;-70
2021/04/12 08:08:31;;;;;;;3.60;3.30;;;;;;;;;;3596315;39;20424;-70
2021/04/12 08:11:21;;;;;;;4.20;3.80;;;;;;;;;;3586394;40;20396;-69
2021/04/12 08:14:18;;;;;;;3.80;3.50;;;;;;;;;;3596342;39;20361;-70
2021/04/12 08:17:02;;;;;;;9.00;7.63;;;;;;;;;;3596390;40;20365;-70
2021/04/12 08:19:33;;;;;;;7.50;6.75;;;;;;;;;;3594484;40;20625;-70
2021/04/12 08:22:27;;;;;;;5.85;5.35;;;;;;;;;;3596258;40;20381;-69
2021/04/12 08:25:05;;;;;;;11.93;10.55;;;;;;;;;;3559620;40;20691;-71
2021/04/12 08:27:58;;;;;;;5.05;4.65;;;;;;;;;;3561328;40;20508;-69
2021/04/12 08:30:43;;;;;;;4.80;4.40;;;;;;;;;;3554326;40;20399;-69
2021/04/12 08:33:28;;;;;;;6.30;5.70;;;;;;;;;;3559759;40;20374;-69
2021/04/12 08:36:12;;;;;;;5.85;5.35;;;;;;;;;;3587120;40;20365;-69
2021/04/12 08:38:59;;;;;;;6.30;5.70;;;;;;;;;;3597834;40;20361;-69
2021/04/12 08:42:02;;;;;;;6.00;5.45;;;8.80;99.90;;;;;;3577692;40;20386;-70
2021/04/12 08:44:49;;;;;;;6.82;6.13;;;;;;;;;;3603482;39;20420;-69
2021/04/12 08:47:37;;;;;;;6.00;5.40;;;11.70;99.90;;;;;;3592029;40;20369;-69
2021/04/12 08:50:19;;;;;;;5.93;5.43;;;;;;;;;;3594459;39;20658;-69
2021/04/12 08:52:59;;;;;;;7.00;6.32;;;;;;;;;;3595358;40;20392;-70
2021/04/12 08:55:42;;;;;;;7.10;6.45;;;;;;;;;;3597812;39;20369;-70
2021/04/12 08:58:25;;;;;;;7.65;6.85;;;;;;;;;;3590707;40;20474;-70
2021/04/12 09:01:13;;;;;;;11.15;9.88;;;;;;;;;;3597651;40;20431;-69
2021/04/12 09:03:51;;;;;;;9.02;8.13;;;;;;;;;;3589776;40;20391;-69
2021/04/12 09:06:32;;;;;;;11.57;10.47;;;;;;;;;;3587329;40;20497;-70
2021/04/12 09:09:11;;;;;;;10.30;9.40;;;;;;;;;;3586443;40;20403;-69
2021/04/12 09:12:16;;;;;;;9.38;8.48;;;11.90;99.90;;;;;;3576604;40;20460;-70
2021/04/12 09:15:08;;;;;;;10.43;9.43;;;11.10;99.90;;;;;;3570084;40;20392;-70
2021/04/12 09:17:55;;;;;;;11.02;10.02;;;11.00;99.90;;;;;;3584336;40;20372;-70
2021/04/12 09:20:57;;;;;;;9.23;8.32;;;11.00;99.90;;;;;;3577488;40;20661;-69
2021/04/12 09:24:05;;;;;;;8.98;8.15;;;11.10;99.90;;;;;;3581745;40;20634;-69
2021/04/12 09:27:08;;;;;;;8.80;8.00;;;11.00;99.90;;;;;;3564813;40;20405;-70
2021/04/12 09:30:11;;;;;;;9.05;8.15;;;11.00;99.90;;;;;;3576107;40;20451;-69
2021/04/12 09:33:20;;;;;;;8.75;7.85;;;10.90;99.90;;;;;;3573807;40;20411;-70
2021/04/12 09:36:05;;;;;;;7.95;7.25;;;11.00;99.90;;;;;;3584857;40;20763;-72
2021/04/12 09:39:11;;;;;;;8.43;7.63;;;11.40;99.90;;;;;;3582057;40;20368;-69
2021/04/12 09:42:21;;;;;;;6.78;6.18;;;11.70;99.90;;;;;;3572106;40;20387;-70
2021/04/12 09:45:21;;;;;;;6.97;5.60;;;;;;;;;;3574770;40;20665;-69
2021/04/12 09:47:54;;;;;;;5.93;5.35;;;;;;;;;;3578358;40;20365;-70
2021/04/12 09:50:51;;;;;;;5.20;4.78;;;;;;;;;;3582980;40;20744;-69
2021/04/12 09:53:31;;;;;;;4.70;4.22;;;;;;;;;;3587064;40;20370;-69
2021/04/12 09:56:12;;;;;;;4.60;4.20;;;11.70;99.90;;;;;;3580734;40;20371;-70
2021/04/12 09:59:19;;;;;;;4.20;3.80;;;11.80;99.90;;;;;;3581143;40;20791;-70
2021/04/12 10:02:00;;;;;;;3.90;3.60;;;;;;;;;;3586583;40;20392;-70
2021/04/12 10:04:41;;;;;;;4.15;3.80;;;;;;;;;;3578226;40;20688;-70
2021/04/12 10:07:25;;;;;;;4.70;4.30;;;;;;;;;;3589598;40;20392;-70
2021/04/12 10:10:04;;;;;;;3.90;3.60;;;;;;;;;;3595432;39;20428;-70
2021/04/12 10:12:39;;;;;;;3.72;3.22;;;;;;;;;;3597326;40;20365;-70
2021/04/12 10:15:17;;;;;;;3.80;3.00;;;11.70;99.90;;;;;;3597391;39;20738;-70
2021/04/12 10:17:46;;;;;;;3.85;3.55;;;;;;;;;;3590389;40;20372;-70
2021/04/12 10:20:20;;;;;;;3.75;3.45;;;12.50;99.90;;;;;;3581221;40;20394;-70
2021/04/12 10:22:57;;;;;;;3.85;3.53;;;;;;;;;;3593584;39;20367;-70
2021/04/12 10:25:31;;;;;;;3.60;3.30;;;12.40;99.90;;;;;;3593352;39;20529;-70
2021/04/12 10:28:10;;;;;;;4.05;3.65;;;12.50;99.90;;;;;;3597210;40;20376;-70
2021/04/12 10:30:45;;;;;;;6.45;5.30;;;12.00;99.90;;;;;;3597099;40;20392;-70
2021/04/12 10:33:18;;;;;;;4.78;4.35;;;11.90;99.90;;;;;;3597370;40;20368;-70
2021/04/12 10:35:48;;;;;;;4.10;3.05;;;12.00;99.90;;;;;;3596931;40;20368;-71
2021/04/12 10:38:20;;;;;;;2.20;2.00;;;12.20;99.90;;;;;;3597132;40;20413;-70
2021/04/12 10:40:48;;;;;;;2.75;2.40;;;;;;;;;;3596739;40;20372;-70
2021/04/12 10:43:17;;;;;;;2.58;2.38;;;;;;;;;;3587042;40;20382;-70
2021/04/12 10:45:47;;;;;;;2.55;2.35;;;;;;;;;;3587247;40;20378;-70
2021/04/12 10:48:15;;;;;;;2.87;2.60;;;;;;;;;;3594591;39;20380;-70
2021/04/12 10:50:53;;;;;;;11.68;10.25;;;;;;;;;;3592982;39;20446;-72
2021/04/12 10:54:00;;;;;;;21.55;18.15;;;12.60;99.90;;;;;;3594928;40;20379;-71
2021/04/12 10:56:33;;;;;;;8.35;7.10;;;13.10;99.90;;;;;;3583896;39;20743;-70
2021/04/12 10:59:27;;;;;;;3.80;3.25;;;13.30;99.90;;;;;;3589779;39;20375;-71
2021/04/12 11:01:59;;;;;;;7.18;6.40;;;13.60;99.90;;;;;;3588366;39;20414;-70
2021/04/12 11:04:40;;;;;;;3.95;3.65;;;;;;;;;;3580625;40;20770;-71
2021/04/12 11:07:12;;;;;;;3.60;3.30;;;;;;;;;;3588631;40;20769;-70
2021/04/12 11:09:47;;;;;;;6.45;5.22;;;;;;;;;;3579922;40;20762;-70
2021/04/12 11:12:17;;;;;;;5.25;4.75;;;;;;;;;;3588760;39;20384;-69
2021/04/12 11:14:49;;;;;;;6.20;5.70;;;;;;;;;;3579888;40;20450;-71
2021/04/12 11:17:18;;;;;;;3.30;2.97;;;;;;;;;;3589089;40;20441;-70
2021/04/12 11:19:50;;;;;;;2.58;2.38;;;;;;;;;;3579178;40;20402;-70
2021/04/12 11:22:21;;;;;;;5.53;4.45;;;;;;;;;;3589887;39;20374;-71
2021/04/12 11:24:56;;;;;;;15.30;13.07;;;;;;;;;;3591294;40;20420;-70
2021/04/12 11:27:40;;;;;;;6.10;5.60;;;;;;;;;;3588152;39;20621;-70
2021/04/12 11:30:14;;;;;;;2.85;2.65;;;;;;;;;;3588795;40;20386;-70
2021/04/12 11:33:01;;;;;;;1.63;1.52;;;;;;;;;;3593238;39;20373;-70
2021/04/12 11:35:32;;;;;;;2.37;2.10;;;;;;;;;;3569246;40;20559;-70
2021/04/12 11:38:04;;;;;;;2.05;1.83;;;;;;;;;;3567838;40;20541;-70
2021/04/12 11:40:31;;;;;;;1.80;1.70;;;;;;;;;;3574825;40;20404;-73
2021/04/12 11:43:00;;;;;;;2.30;1.92;;;;;;;;;;3589308;39;20384;-70
2021/04/12 11:45:28;;;;;;;1.98;1.80;;;;;;;;;;3591400;39;20780;-69
2021/04/12 11:47:59;;;;;;;0.93;0.80;;;;;;;;;;3592661;39;20461;-70
2021/04/12 11:50:37;;;;;;;1.17;0.80;;;;;;;;;;3586820;40;20388;-71
2021/04/12 11:53:20;;;;;;;1.40;1.00;;;;;;;;;;3596023;40;20518;-70
2021/04/12 11:55:53;;;;;;;1.03;0.70;;;;;;;;;;3594072;39;20410;-70
2021/04/12 11:58:22;;;;;;;1.33;0.73;;;;;;;;;;3595689;40;20391;-70
2021/04/12 12:00:59;;;;;;;1.50;0.77;;;;;;;;;;3594290;40;21048;-70
2021/04/12 12:03:40;;;;;;;0.50;0.50;;;;;;;;;;3595539;40;20444;-70
2021/04/12 12:06:10;;;;;;;0.70;0.70;;;;;;;;;;3595514;39;20385;-71
2021/04/12 12:08:51;;;;;;;0.70;0.60;;;;;;;;;;3597034;40;20384;-71
2021/04/12 12:11:26;;;;;;;0.77;0.50;;;;;;;;;;3597096;40;20742;-70
2021/04/12 12:13:55;;;;;;;0.80;0.50;;;;;;;;;;3595545;39;20777;-70
2021/04/12 12:16:25;;;;;;;2.70;2.03;;;;;;;;;;3597305;39;20383;-71
2021/04/12 12:18:53;;;;;;;2.53;1.80;;;;;;;;;;3597507;39;20831;-70
2021/04/12 12:21:20;;;;;;;2.70;1.58;;;;;;;;;;3597540;40;20420;-70
2021/04/12 12:23:58;;;;;;;1.00;0.68;;;;;;;;;;3586599;39;20394;-69
2021/04/12 12:26:32;;;;;;;0.60;0.43;;;;;;;;;;3597272;39;20373;-71
2021/04/12 12:29:06;;;;;;;0.60;0.30;;;;;;;;;;3596958;39;20396;-71
2021/04/12 12:31:38;;;;;;;1.10;0.52;;;;;;;;;;3597779;40;20373;-70
2021/04/12 12:34:09;;;;;;;0.70;0.30;;;;;;;;;;3596118;40;20491;-71
2021/04/12 12:36:40;;;;;;;1.60;0.60;;;;;;;;;;3598427;39;20477;-71
2021/04/12 12:39:09;;;;;;;2.00;0.40;;;;;;;;;;3593160;40;20379;-70
2021/04/12 12:41:37;;;;;;;1.70;0.43;;;;;;;;;;3593256;40;20380;-71
2021/04/12 12:44:05;;;;;;;0.30;0.25;;;;;;;;;;3596245;39;20384;-71
2021/04/12 12:46:33;;;;;;;0.52;0.40;;;;;;;;;;3597311;40;20404;-71
2021/04/12 12:49:02;;;;;;;1.08;0.60;;;;;;;;;;3594475;39;20404;-71
2021/04/12 12:51:30;;;;;;;0.60;0.50;;;;;;;;;;3599698;39;20653;-71
2021/04/12 12:54:01;;;;;;;0.60;0.30;;;;;;;;;;3590317;40;20460;-74
2021/04/12 12:56:29;;;;;;;1.35;0.95;;;;;;;;;;3595908;40;20371;-71
2021/04/12 12:58:59;;;;;;;0.70;0.60;;;;;;;;;;3597765;40;20405;-72
2021/04/12 13:01:26;;;;;;;0.77;0.30;;;;;;;;;;3592784;39;20393;-71
2021/04/12 13:03:53;;;;;;;0.50;0.22;;;;;;;;;;3598295;39;20478;-71
2021/04/12 13:06:21;;;;;;;0.52;0.30;;;;;;;;;;3588709;40;20414;-71
2021/04/12 13:08:51;;;;;;;0.60;0.30;;;;;;;;;;3588010;40;20394;-71
2021/04/12 13:11:34;;;;;;;0.85;0.40;;;;;;;;;;3589210;40;20721;-70
2021/04/12 13:14:17;;;;;;;0.85;0.38;;;;;;;;;;3583489;40;20399;-70
2021/04/12 13:16:44;;;;;;;0.57;0.40;;;;;;;;;;3575196;40;20759;-70
2021/04/12 13:19:13;;;;;;;0.77;0.30;;;;;;;;;;3586956;40;20402;-71
2021/04/12 13:21:41;;;;;;;0.43;0.40;;;;;;;;;;3587658;40;20367;-70
2021/04/12 13:24:18;;;;;;;0.93;0.40;;;;;;;;;;3580292;40;20387;-71
2021/04/12 13:26:47;;;;;;;0.63;0.40;;;;;;;;;;3583015;40;20399;-71
2021/04/12 13:29:17;;;;;;;0.70;0.50;;;;;;;;;;3573875;40;20471;-71
2021/04/12 13:31:44;;;;;;;1.17;0.38;;;;;;;;;;3582541;40;20390;-71
2021/04/12 13:34:14;;;;;;;1.25;0.43;;;;;;;;;;3587231;40;20390;-76
2021/04/12 13:36:41;;;;;;;0.85;0.50;;;;;;;;;;3587463;40;20464;-70
2021/04/12 13:39:10;;;;;;;0.80;0.45;;;;;;;;;;3587888;40;20370;-70
2021/04/12 13:41:38;;;;;;;1.00;0.47;;;;;;;;;;3587781;40;20395;-70
2021/04/12 13:44:07;;;;;;;1.80;1.20;;;;;;;;;;3587622;40;20377;-71
2021/04/12 13:46:39;;;;;;;0.98;0.60;;;;;;;;;;3587288;40;20397;-70
2021/04/12 13:49:07;;;;;;;0.70;0.50;;;15.50;99.90;;;;;;3581643;40;20704;-70
2021/04/12 13:51:36;;;;;;;1.35;0.57;;;;;;;;;;3587667;40;20472;-71
2021/04/12 13:54:05;;;;;;;0.57;0.43;;;;;;;;;;3587664;40;20647;-71
2021/04/12 13:56:40;;;;;;;0.40;0.30;;;;;;;;;;3581936;40;20378;-71
2021/04/12 13:59:08;;;;;;;1.00;0.40;;;;;;;;;;3582491;40;20400;-71
2021/04/12 14:01:41;;;;;;;1.30;1.20;;;;;;;;;;3586307;40;20378;-70
2021/04/12 14:04:11;;;;;;;0.63;0.50;;;;;;;;;;3587948;40;20378;-70
2021/04/12 14:06:44;;;;;;;1.20;0.43;;;16.10;97.50;;;;;;3591497;40;20439;-72
2021/04/12 14:09:16;;;;;;;1.08;0.52;;;15.00;99.50;;;;;;3587890;40;20706;-71
2021/04/12 14:11:44;;;;;;;1.27;1.00;;;;;;;;;;3593512;39;20463;-70
2021/04/12 14:14:15;;;;;;;1.00;0.60;;;;;;;;;;3596688;39;20395;-70
2021/04/12 14:16:42;;;;;;;1.00;0.63;;;;;;;;;;3594774;40;20970;-71
2021/04/12 14:19:13;;;;;;;0.70;0.40;;;15.50;99.10;;;;;;3597181;39;20384;-71
2021/04/12 14:21:42;;;;;;;0.90;0.55;;;15.10;99.00;;;;;;3586819;40;20419;-70
2021/04/12 14:24:11;;;;;;;1.55;0.70;;;;;;;;;;3596258;40;20383;-72
2021/04/12 14:26:40;;;;;;;0.65;0.40;;;;;;;;;;3597275;39;20473;-70
2021/04/12 14:29:09;;;;;;;3.90;2.42;;;;;;;;;;3597149;39;20397;-70
2021/04/12 14:31:37;;;;;;;43.08;25.90;;;;;;;;;;3597033;40;20418;-70
2021/04/12 14:34:08;;;;;;;1.98;0.43;;;;;;;;;;3596871;39;20387;-70
2021/04/12 14:36:38;;;;;;;0.80;0.30;;;;;;;;;;3594934;40;20369;-71
2021/04/12 14:39:20;;;;;;;0.25;0.25;;;;;;;;;;3597322;40;20424;-70
2021/04/12 14:41:50;;;;;;;0.93;0.30;;;;;;;;;;3597349;39;20365;-71
2021/04/12 14:44:21;;;;;;;0.85;0.20;;;;;;;;;;3592560;39;20524;-71
2021/04/12 14:46:48;;;;;;;0.40;0.20;;;;;;;;;;3597630;40;20365;-71
2021/04/12 14:49:16;;;;;;;0.80;0.20;;;;;;;;;;3597162;39;20514;-70
2021/04/12 14:51:54;;;;;;;1.30;0.20;;;;;;;;;;3597105;40;20424;-70
2021/04/12 14:54:23;;;;;;;0.30;0.20;;;;;;;;;;3592498;39;20415;-71
2021/04/12 14:56:50;;;;;;;0.22;0.20;;;;;;;;;;3587621;40;20813;-71
2021/04/12 14:59:33;;;;;;;0.90;0.50;;;;;;;;;;3601418;39;20379;-71
2021/04/12 15:02:02;;;;;;;0.88;0.50;;;;;;;;;;3595269;40;21226;-71
2021/04/12 15:04:31;;;;;;;0.63;0.20;;;;;;;;;;3596896;40;20487;-70
2021/04/12 15:07:04;;;;;;;0.28;0.20;;;;;;;;;;3597290;40;20749;-70
2021/04/12 15:09:32;;;;;;;0.40;0.30;;;;;;;;;;3602197;39;20702;-71
2021/04/12 15:12:02;;;;;;;3.03;1.17;;;;;;;;;;3596900;40;20373;-71
2021/04/12 15:14:32;;;;;;;0.47;0.20;;;;;;;;;;3597314;39;20859;-70
2021/04/12 15:17:01;;;;;;;0.40;0.10;;;;;;;;;;3596985;40;20634;-69
2021/04/12 15:19:31;;;;;;;1.15;0.20;;;;;;;;;;3593603;40;20382;-70
2021/04/12 15:22:00;;;;;;;0.80;0.20;;;;;;;;;;3584986;40;20393;-70
2021/04/12 15:24:34;;;;;;;0.40;0.20;;;15.50;97.70;;;;;;3596976;40;20380;-70
2021/04/12 15:27:02;;;;;;;0.30;0.20;;;;;;;;;;3579986;40;20389;-70
2021/04/12 15:29:32;;;;;;;1.00;0.20;;;;;;;;;;3587245;40;20417;-74